createdAt,value
2018-08-23T00:04:10.737Z,22.57
2018-08-23T00:09:14.530Z,19.80
2018-08-23T00:14:18.665Z,21.10
2018-08-23T00:19:22.446Z,21.90
2018-08-23T00:24:26.563Z,20.70
2018-08-23T00:29:31.721Z,22.00
2018-08-23T00:34:37.490Z,24.27
2018-08-23T00:39:41.577Z,22.63
2018-08-23T00:44:58.652Z,23.35
2018-08-23T00:50:03.331Z,22.70
2018-08-23T00:55:37.322Z,24.50
2018-08-23T01:00:43.292Z,24.33
2018-08-23T01:05:47.091Z,22.57
2018-08-23T01:10:51.144Z,22.50
2018-08-23T01:15:54.978Z,24.77
2018-08-23T01:20:59.035Z,21.97
2018-08-23T01:26:04.351Z,24.00
2018-08-23T01:31:24.407Z,24.47
2018-08-23T01:36:31.618Z,22.43
2018-08-23T01:41:35.663Z,23.63
2018-08-23T01:46:44.522Z,21.73
2018-08-23T01:51:48.401Z,22.90
2018-08-23T01:56:52.447Z,26.07
2018-08-23T02:01:58.866Z,24.57
2018-08-23T02:07:03.257Z,26.10
2018-08-23T02:12:07.319Z,26.07
2018-08-23T02:17:11.396Z,26.17
2018-08-23T02:22:15.431Z,24.37
2018-08-23T02:27:20.462Z,25.83
2018-08-23T02:32:24.581Z,25.60
2018-08-23T02:37:28.634Z,25.93
2018-08-23T02:42:32.709Z,23.83
2018-08-23T02:47:36.762Z,25.80
2018-08-23T02:52:40.818Z,24.67
2018-08-23T02:57:54.713Z,26.00
2018-08-23T03:03:00.314Z,26.47
2018-08-23T03:08:04.117Z,25.33
2018-08-23T03:13:08.157Z,25.77
2018-08-23T03:18:11.963Z,28.73
2018-08-23T03:23:16.055Z,29.60
2018-08-23T03:28:20.062Z,29.33
2018-08-23T03:33:24.100Z,29.47
2018-08-23T03:38:27.897Z,31.70
2018-08-23T03:43:31.915Z,29.30
2018-08-23T03:48:35.930Z,27.83
2018-08-23T03:53:47.831Z,30.17
2018-08-23T03:58:51.798Z,30.80
2018-08-23T04:03:55.607Z,31.63
2018-08-23T04:08:59.649Z,34.60
2018-08-23T04:14:03.433Z,35.30
2018-08-23T04:19:07.314Z,33.77
2018-08-23T04:24:11.151Z,32.83
2018-08-23T04:29:29.228Z,34.50
2018-08-23T04:34:36.659Z,36.83
2018-08-23T04:39:45.605Z,31.40
2018-08-23T04:44:51.625Z,32.30
2018-08-23T04:49:55.646Z,37.83
2018-08-23T04:54:59.655Z,39.87
2018-08-23T05:00:03.727Z,35.80
2018-08-23T05:05:07.743Z,34.13
2018-08-23T05:10:11.856Z,34.83
2018-08-23T05:15:15.647Z,38.17
2018-08-23T05:20:20.056Z,36.47
2018-08-23T05:25:24.442Z,36.40
2018-08-23T05:30:29.191Z,36.13
2018-08-23T05:35:33.450Z,35.13
2018-08-23T05:40:43.220Z,37.67
2018-08-23T05:45:50.082Z,39.03
2018-08-23T05:50:54.438Z,34.77
2018-08-23T05:55:59.470Z,36.50
2018-08-23T06:01:03.684Z,33.77
2018-08-23T06:06:08.187Z,31.10
2018-08-23T06:11:12.476Z,39.07
2018-08-23T06:16:16.500Z,37.87
2018-08-23T06:21:20.627Z,39.27
2018-08-23T06:26:41.050Z,33.13
2018-08-23T06:32:04.341Z,34.77
2018-08-23T06:37:08.360Z,35.07
2018-08-23T06:42:12.451Z,38.57
2018-08-23T06:47:19.598Z,36.47
2018-08-23T06:53:02.997Z,33.53
2018-08-23T06:58:07.031Z,40.63
2018-08-23T07:03:10.874Z,35.27
2018-08-23T07:08:14.899Z,38.30
2018-08-23T07:13:19.019Z,40.40
2018-08-23T07:18:23.110Z,42.60
2018-08-23T07:23:33.922Z,39.87
2018-08-23T07:28:38.563Z,40.05
2018-08-23T07:33:43.988Z,42.90
2018-08-23T07:38:49.545Z,46.60
2018-08-23T07:43:53.562Z,48.37
2018-08-23T07:48:57.366Z,50.90
2018-08-23T07:54:05.382Z,43.33
2018-08-23T07:59:09.478Z,44.88
2018-08-23T08:04:13.262Z,43.78
2018-08-23T08:09:24.478Z,42.27
2018-08-23T08:14:35.682Z,44.40
2018-08-23T08:19:41.636Z,45.88
2018-08-23T08:24:45.740Z,40.03
2018-08-23T08:29:50.613Z,42.98
2018-08-23T08:34:56.813Z,46.30
2018-08-23T08:40:00.854Z,40.80
2018-08-23T08:45:11.406Z,40.98
2018-08-23T08:50:15.764Z,42.48
2018-08-23T08:55:19.783Z,36.70
2018-08-23T09:00:23.570Z,39.15
2018-08-23T09:05:27.372Z,36.58
2018-08-23T09:10:31.435Z,35.20
2018-08-23T09:15:35.447Z,32.50
2018-08-23T09:20:39.495Z,35.17
2018-08-23T09:25:43.283Z,42.25
2018-08-23T09:30:47.315Z,34.78
2018-08-23T09:35:51.359Z,34.90
2018-08-23T09:40:55.166Z,28.70
2018-08-23T09:45:59.211Z,26.90
2018-08-23T09:51:19.377Z,21.00
2018-08-23T09:56:29.449Z,23.07
2018-08-23T10:01:38.592Z,14.75
2018-08-23T10:07:48.438Z,16.95
2018-08-23T10:12:57.843Z,15.70
2018-08-23T10:18:06.907Z,14.58
2018-08-23T10:23:16.518Z,12.23
2018-08-23T10:28:21.870Z,9.10
2018-08-23T10:33:25.672Z,8.75
2018-08-23T10:38:29.459Z,10.13
2018-08-23T10:43:38.741Z,8.37
2018-08-23T10:48:42.528Z,8.37
2018-08-23T10:53:46.312Z,7.17
2018-08-23T10:58:50.335Z,7.63
2018-08-23T11:03:54.351Z,5.43
2018-08-23T11:09:03.804Z,7.20
2018-08-23T11:14:13.235Z,4.60
2018-08-23T11:19:22.694Z,6.22
2018-08-23T11:24:26.742Z,21.15
2018-08-23T11:29:30.579Z,4.83
2018-08-23T11:34:34.566Z,4.60
2018-08-23T11:39:38.638Z,3.42
2018-08-23T11:44:42.678Z,3.25
2018-08-23T11:49:47.251Z,4.20
2018-08-23T11:54:51.335Z,3.10
2018-08-23T11:59:55.457Z,3.37
2018-08-23T12:04:59.245Z,4.05
2018-08-23T12:10:04.018Z,3.40
2018-08-23T12:15:08.080Z,4.55
2018-08-23T12:20:11.941Z,3.13
2018-08-23T12:25:15.709Z,3.62
2018-08-23T12:30:19.964Z,3.47
2018-08-23T12:35:23.834Z,5.53
2018-08-23T12:40:35.128Z,5.42
2018-08-23T12:45:41.113Z,3.22
2018-08-23T12:50:45.223Z,2.37
2018-08-23T12:55:49.239Z,4.07
2018-08-23T13:00:53.283Z,2.53
2018-08-23T13:05:57.046Z,3.73
2018-08-23T13:11:01.098Z,7.17
2018-08-23T13:16:05.124Z,3.77
2018-08-23T13:21:09.534Z,3.53
2018-08-23T13:26:13.554Z,3.37
2018-08-23T13:31:17.635Z,3.12
2018-08-23T13:36:24.757Z,6.83
2018-08-23T13:41:28.333Z,3.57
2018-08-23T13:46:32.527Z,4.58
2018-08-23T13:51:36.536Z,2.98
2018-08-23T13:56:40.358Z,3.17
2018-08-23T14:01:44.372Z,5.85
2018-08-23T14:06:48.202Z,3.80
2018-08-23T14:11:52.208Z,4.97
2018-08-23T14:16:56.254Z,4.23
2018-08-23T14:22:00.264Z,8.57
2018-08-23T14:27:04.398Z,7.53
2018-08-23T14:32:08.129Z,5.40
2018-08-23T14:37:12.131Z,7.37
2018-08-23T14:42:16.228Z,10.80
2018-08-23T14:47:25.522Z,14.23
2018-08-23T14:52:29.297Z,7.03
2018-08-23T14:57:34.543Z,6.37
2018-08-23T15:02:38.558Z,9.20
2018-08-23T15:07:42.397Z,8.33
2018-08-23T15:12:46.134Z,10.43
2018-08-23T15:17:50.156Z,6.30
2018-08-23T15:22:53.970Z,9.30
2018-08-23T15:27:57.982Z,7.90
2018-08-23T15:33:02.038Z,9.43
2018-08-23T15:38:06.150Z,9.15
2018-08-23T15:43:09.985Z,11.50
2018-08-23T15:48:13.781Z,10.10
2018-08-23T15:53:17.582Z,9.40
2018-08-23T15:58:21.351Z,7.63
2018-08-23T16:03:25.348Z,11.30
2018-08-23T16:08:29.116Z,20.57
2018-08-23T16:13:32.883Z,9.60
2018-08-23T16:18:42.199Z,19.43
2018-08-23T16:23:46.210Z,11.53
2018-08-23T16:28:49.987Z,10.57
2018-08-23T16:33:53.809Z,7.53
2018-08-23T16:38:57.565Z,7.97
2018-08-23T16:44:01.351Z,14.03
2018-08-23T16:49:05.146Z,9.40
2018-08-23T16:54:08.991Z,9.60
2018-08-23T16:59:12.759Z,7.73
2018-08-23T17:04:16.783Z,9.60
2018-08-23T17:09:20.747Z,7.07
2018-08-23T17:14:24.546Z,7.53
2018-08-23T17:19:28.338Z,7.17
2018-08-23T17:24:32.165Z,12.47
2018-08-23T17:29:35.889Z,9.13
2018-08-23T17:34:40.129Z,10.17
2018-08-23T17:39:44.155Z,8.90
2018-08-23T17:44:47.943Z,14.27
2018-08-23T17:49:51.712Z,12.53
2018-08-23T17:54:56.069Z,9.10
2018-08-23T18:00:00.092Z,8.70
2018-08-23T18:05:04.088Z,8.17
2018-08-23T18:10:08.104Z,8.83
2018-08-23T18:15:11.907Z,7.93
2018-08-23T18:20:15.717Z,7.20
2018-08-23T18:25:19.703Z,9.87
2018-08-23T18:30:23.471Z,8.93
2018-08-23T18:35:27.251Z,10.13
2018-08-23T18:40:31.335Z,9.10
2018-08-23T18:45:35.128Z,8.83
2018-08-23T18:50:39.137Z,9.60
2018-08-23T18:55:43.135Z,8.03
2018-08-23T19:00:47.134Z,6.03
2018-08-23T19:05:50.970Z,5.47
2018-08-23T19:10:54.678Z,5.37
2018-08-23T19:16:03.967Z,6.77
2018-08-23T19:21:07.970Z,5.50
2018-08-23T19:26:11.802Z,4.67
2018-08-23T19:31:15.854Z,4.53
2018-08-23T19:36:19.818Z,4.80
2018-08-23T19:41:24.395Z,5.33
2018-08-23T19:46:33.474Z,4.67
2018-08-23T19:51:37.462Z,5.23
2018-08-23T19:56:41.427Z,4.00
2018-08-23T20:01:45.442Z,4.20
2018-08-23T20:06:49.290Z,4.03
2018-08-23T20:11:53.289Z,5.23
2018-08-23T20:16:57.142Z,5.33
2018-08-23T20:22:00.931Z,5.03
2018-08-23T20:27:04.733Z,5.60
2018-08-23T20:32:08.535Z,4.17
2018-08-23T20:37:12.298Z,4.03
2018-08-23T20:42:16.347Z,5.17
2018-08-23T20:47:20.130Z,4.33
2018-08-23T20:52:23.970Z,3.80
2018-08-23T20:57:27.968Z,5.07
2018-08-23T21:02:31.741Z,3.90
2018-08-23T21:07:35.764Z,4.57
2018-08-23T21:12:39.554Z,3.90
2018-08-23T21:17:43.555Z,4.13
2018-08-23T21:22:47.579Z,3.60
2018-08-23T21:27:51.578Z,4.40
2018-08-23T21:32:55.591Z,3.80
2018-08-23T21:37:59.353Z,6.13
2018-08-23T21:43:03.344Z,5.03
2018-08-23T21:48:07.423Z,3.73
2018-08-23T21:53:11.735Z,4.37
2018-08-23T21:58:15.759Z,5.17
2018-08-23T22:03:19.775Z,4.40
2018-08-23T22:08:23.866Z,4.13
2018-08-23T22:13:27.741Z,5.07
2018-08-23T22:18:31.921Z,9.43
2018-08-23T22:23:35.780Z,9.27
2018-08-23T22:28:39.923Z,3.43
2018-08-23T22:33:43.951Z,3.00
2018-08-23T22:38:47.990Z,4.62
2018-08-23T22:43:52.076Z,7.10
2018-08-23T22:48:56.106Z,4.75
2018-08-23T22:54:00.143Z,4.20
2018-08-23T22:59:03.982Z,3.57
2018-08-23T23:04:13.259Z,3.10
2018-08-23T23:09:17.042Z,3.20
2018-08-23T23:14:20.826Z,3.80
2018-08-23T23:19:25.767Z,3.47
2018-08-23T23:25:05.498Z,3.30
2018-08-23T23:30:09.278Z,4.60
2018-08-23T23:35:13.314Z,3.10
2018-08-23T23:40:17.150Z,3.17
2018-08-23T23:45:21.151Z,3.50
2018-08-23T23:50:25.183Z,4.00
2018-08-23T23:55:28.967Z,3.30
